sensor_id;sensor_type;location;lat;lon;timestamp;pressure;altitude;pressure_sealevel;temperature;humidity
35649;BME280;21768;48.562;13.414;2023-03-03T17:38:38;97519.03;;;8.75;54.92
35649;BME280;21768;48.562;13.414;2023-03-03T17:41:11;97525.16;;;8.79;54.72
35649;BME280;21768;48.562;13.414;2023-03-03T17:47:01;97531.06;;;8.79;54.78
35649;BME280;21768;48.562;13.414;2023-03-03T18:26:54;97550.50;;;8.15;56.50
35649;BME280;21768;48.562;13.414;2023-03-03T18:29:21;97550.03;;;8.09;56.73
35649;BME280;21768;48.562;13.414;2023-03-03T18:34:35;97554.75;;;7.94;56.92
35649;BME280;21768;48.562;13.414;2023-03-03T18:39:36;97558.84;;;7.82;57.31
35649;BME280;21768;48.562;13.414;2023-03-03T18:42:07;97557.72;;;7.78;57.62
35649;BME280;21768;48.562;13.414;2023-03-03T18:44:34;97559.84;;;7.74;57.51
35649;BME280;21768;48.562;13.414;2023-03-03T18:46:59;97566.16;;;7.69;57.98
35649;BME280;21768;48.562;13.414;2023-03-03T18:52:16;97567.09;;;7.59;58.11
35649;BME280;21768;48.562;13.414;2023-03-03T18:54:59;97566.09;;;7.57;57.88
35649;BME280;21768;48.562;13.414;2023-03-03T18:57:25;97564.31;;;7.56;58.06
35649;BME280;21768;48.562;13.414;2023-03-03T18:59:56;97570.84;;;7.54;58.37
35649;BME280;21768;48.562;13.414;2023-03-03T19:02:33;97569.75;;;7.50;58.46
35649;BME280;21768;48.562;13.414;2023-03-03T19:05:20;97560.31;;;7.48;58.25
35649;BME280;21768;48.562;13.414;2023-03-03T19:12:51;97577.06;;;7.37;59.04
35649;BME280;21768;48.562;13.414;2023-03-03T19:18:18;97580.22;;;7.25;59.10
35649;BME280;21768;48.562;13.414;2023-03-03T19:23:16;97583.00;;;7.18;59.60
35649;BME280;21768;48.562;13.414;2023-03-03T19:25:42;97577.38;;;7.10;59.50
35649;BME280;21768;48.562;13.414;2023-03-03T19:30:53;97581.50;;;6.99;60.10
35649;BME280;21768;48.562;13.414;2023-03-03T19:44:50;97582.66;;;6.82;60.39
35649;BME280;21768;48.562;13.414;2023-03-03T19:55:43;97579.66;;;6.66;61.17
35649;BME280;21768;48.562;13.414;2023-03-03T20:09:21;97574.50;;;6.55;61.71
35649;BME280;21768;48.562;13.414;2023-03-03T20:14:44;97580.00;;;6.51;61.33
35649;BME280;21768;48.562;13.414;2023-03-03T20:18:02;97581.63;;;6.50;61.47
35649;BME280;21768;48.562;13.414;2023-03-03T20:23:01;97577.50;;;6.40;61.81
35649;BME280;21768;48.562;13.414;2023-03-03T20:25:40;97587.38;;;6.39;61.84
35649;BME280;21768;48.562;13.414;2023-03-03T20:31:05;97585.38;;;6.35;61.90
35649;BME280;21768;48.562;13.414;2023-03-03T20:36:34;97580.44;;;6.26;62.05
35649;BME280;21768;48.562;13.414;2023-03-03T20:39:09;97584.94;;;6.20;62.36
35649;BME280;21768;48.562;13.414;2023-03-03T20:41:57;97587.97;;;6.16;62.36
35649;BME280;21768;48.562;13.414;2023-03-03T20:47:33;97596.50;;;6.18;62.46
35649;BME280;21768;48.562;13.414;2023-03-03T20:55:32;97590.97;;;6.12;62.30
35649;BME280;21768;48.562;13.414;2023-03-03T20:58:26;97591.56;;;6.09;62.61
35649;BME280;21768;48.562;13.414;2023-03-03T21:01:04;97601.31;;;6.06;62.31
35649;BME280;21768;48.562;13.414;2023-03-03T21:03:41;97601.94;;;6.04;62.64
35649;BME280;21768;48.562;13.414;2023-03-03T21:06:13;97600.78;;;6.00;62.74
35649;BME280;21768;48.562;13.414;2023-03-03T21:11:16;97601.78;;;5.92;62.99
35649;BME280;21768;48.562;13.414;2023-03-03T21:13:44;97603.28;;;5.90;62.86
35649;BME280;21768;48.562;13.414;2023-03-03T21:16:36;97606.38;;;5.88;62.77
35649;BME280;21768;48.562;13.414;2023-03-03T21:21:30;97607.31;;;5.79;62.94
35649;BME280;21768;48.562;13.414;2023-03-03T21:23:56;97605.16;;;5.74;63.06
35649;BME280;21768;48.562;13.414;2023-03-03T21:26:42;97623.06;;;5.68;63.13
35649;BME280;21768;48.562;13.414;2023-03-03T21:29:15;97617.78;;;5.65;63.29
35649;BME280;21768;48.562;13.414;2023-03-03T21:31:45;97616.63;;;5.62;63.61
35649;BME280;21768;48.562;13.414;2023-03-03T21:36:51;97626.09;;;5.56;63.85
35649;BME280;21768;48.562;13.414;2023-03-03T21:42:02;97618.19;;;5.51;64.11
35649;BME280;21768;48.562;13.414;2023-03-03T21:46:59;97613.66;;;5.47;64.28
35649;BME280;21768;48.562;13.414;2023-03-03T21:49:25;97614.16;;;5.43;64.12
35649;BME280;21768;48.562;13.414;2023-03-03T21:51:51;97612.88;;;5.38;64.38
35649;BME280;21768;48.562;13.414;2023-03-03T21:54:16;97611.72;;;5.34;64.44
35649;BME280;21768;48.562;13.414;2023-03-03T21:56:41;97615.09;;;5.35;64.50
35649;BME280;21768;48.562;13.414;2023-03-03T21:59:07;97612.59;;;5.35;64.64
35649;BME280;21768;48.562;13.414;2023-03-03T22:01:33;97611.59;;;5.33;64.36
35649;BME280;21768;48.562;13.414;2023-03-03T22:03:59;97618.53;;;5.27;64.34
35649;BME280;21768;48.562;13.414;2023-03-03T22:06:24;97616.50;;;5.23;64.48
35649;BME280;21768;48.562;13.414;2023-03-03T22:08:50;97613.88;;;5.21;64.67
35649;BME280;21768;48.562;13.414;2023-03-03T22:11:15;97610.38;;;5.19;64.87
35649;BME280;21768;48.562;13.414;2023-03-03T22:13:40;97611.00;;;5.17;64.79
35649;BME280;21768;48.562;13.414;2023-03-03T22:16:06;97609.28;;;5.07;64.98
35649;BME280;21768;48.562;13.414;2023-03-03T22:18:32;97614.00;;;5.04;65.02
35649;BME280;21768;48.562;13.414;2023-03-03T22:20:58;97613.47;;;4.98;65.25
35649;BME280;21768;48.562;13.414;2023-03-03T22:23:23;97609.06;;;4.95;65.07
35649;BME280;21768;48.562;13.414;2023-03-03T22:25:48;97617.19;;;4.93;65.00
35649;BME280;21768;48.562;13.414;2023-03-03T22:28:14;97612.06;;;4.91;64.81
35649;BME280;21768;48.562;13.414;2023-03-03T22:30:39;97608.53;;;4.89;65.00
35649;BME280;21768;48.562;13.414;2023-03-03T22:33:05;97613.59;;;4.81;65.18
35649;BME280;21768;48.562;13.414;2023-03-03T22:35:30;97613.16;;;4.76;65.58
35649;BME280;21768;48.562;13.414;2023-03-03T22:37:56;97613.03;;;4.74;65.52
35649;BME280;21768;48.562;13.414;2023-03-03T22:40:21;97612.00;;;4.72;65.48
35649;BME280;21768;48.562;13.414;2023-03-03T22:42:46;97612.13;;;4.74;65.52
35649;BME280;21768;48.562;13.414;2023-03-03T22:45:12;97611.75;;;4.69;65.33
35649;BME280;21768;48.562;13.414;2023-03-03T22:47:38;97612.81;;;4.63;65.76
35649;BME280;21768;48.562;13.414;2023-03-03T22:50:04;97612.53;;;4.60;65.91
35649;BME280;21768;48.562;13.414;2023-03-03T22:52:30;97613.13;;;4.57;65.94
35649;BME280;21768;48.562;13.414;2023-03-03T22:54:55;97617.97;;;4.56;65.88
35649;BME280;21768;48.562;13.414;2023-03-03T22:57:23;97618.59;;;4.53;65.86
35649;BME280;21768;48.562;13.414;2023-03-03T22:59:48;97615.66;;;4.49;66.06
35649;BME280;21768;48.562;13.414;2023-03-03T23:02:14;97614.63;;;4.47;66.01
35649;BME280;21768;48.562;13.414;2023-03-03T23:04:39;97611.16;;;4.44;65.84
35649;BME280;21768;48.562;13.414;2023-03-03T23:07:04;97604.13;;;4.40;65.99
35649;BME280;21768;48.562;13.414;2023-03-03T23:09:30;97608.81;;;4.37;66.25
35649;BME280;21768;48.562;13.414;2023-03-03T23:11:55;97610.31;;;4.35;66.30
35649;BME280;21768;48.562;13.414;2023-03-03T23:14:20;97605.03;;;4.32;66.42
35649;BME280;21768;48.562;13.414;2023-03-03T23:16:46;97604.88;;;4.31;66.17
35649;BME280;21768;48.562;13.414;2023-03-03T23:19:11;97611.22;;;4.27;66.24
35649;BME280;21768;48.562;13.414;2023-03-03T23:21:36;97607.53;;;4.24;66.39
35649;BME280;21768;48.562;13.414;2023-03-03T23:24:02;97602.91;;;4.18;66.72
35649;BME280;21768;48.562;13.414;2023-03-03T23:26:28;97600.84;;;4.14;66.47
35649;BME280;21768;48.562;13.414;2023-03-03T23:28:53;97606.56;;;4.13;66.72
35649;BME280;21768;48.562;13.414;2023-03-03T23:31:18;97608.06;;;4.11;66.85
35649;BME280;21768;48.562;13.414;2023-03-03T23:33:44;97609.53;;;4.09;66.91
35649;BME280;21768;48.562;13.414;2023-03-03T23:36:09;97612.91;;;4.09;66.96
35649;BME280;21768;48.562;13.414;2023-03-03T23:38:34;97618.03;;;4.11;66.75
35649;BME280;21768;48.562;13.414;2023-03-03T23:41:00;97611.28;;;4.10;66.50
35649;BME280;21768;48.562;13.414;2023-03-03T23:43:25;97614.38;;;4.07;66.47
35649;BME280;21768;48.562;13.414;2023-03-03T23:45:50;97610.56;;;4.02;66.57
35649;BME280;21768;48.562;13.414;2023-03-03T23:48:16;97613.38;;;3.97;66.96
35649;BME280;21768;48.562;13.414;2023-03-03T23:50:41;97622.22;;;3.93;66.74
35649;BME280;21768;48.562;13.414;2023-03-03T23:53:07;97614.56;;;3.92;67.16
35649;BME280;21768;48.562;13.414;2023-03-03T23:55:33;97619.28;;;3.89;66.97
35649;BME280;21768;48.562;13.414;2023-03-03T23:57:59;97625.16;;;3.89;67.08
